Time;durP1;ratioP1;P1;durP2;ratioP2;P2;SDS_P1;SDS_P2;PMS_P1;PMS_P2;Temp;Humidity;BMP_temperature;BMP_pressure;BME280_temperature;BME280_humidity;BME280_pressure;Samples;Min_cycle;Max_cycle;Signal;HPM_P1;HPM_P2
2021/01/15 00:01:21;;;;;;;;;89.50;68.75;;;;;-2.91;81.02;100312.19;3725731;38;17691;-67
2021/01/15 00:03:47;;;;;;;;;83.50;66.25;;;;;-2.95;80.92;100314.19;3725803;37;17671;-67
2021/01/15 00:06:24;;;;;;;;;87.00;67.00;;;;;-3.04;80.84;100317.47;3725697;38;20471;-67
2021/01/15 00:08:52;;;;;;;;;77.25;59.00;;;;;-3.08;80.98;100323.91;3725330;37;17660;-69
2021/01/15 00:11:22;;;;;;;;;87.50;64.00;;;;;-3.13;81.13;100321.59;3725569;38;20485;-68
2021/01/15 00:13:49;;;;;;;;;87.50;63.50;;;;;-3.20;80.81;100327.41;3725738;38;20451;-68
2021/01/15 00:16:25;;;;;;;;;84.00;60.00;;;;;-3.27;81.27;100331.41;3725739;37;20450;-69
2021/01/15 00:18:56;;;;;;;;;83.75;61.50;;;;;-3.33;80.92;100337.94;3725528;38;20458;-68
2021/01/15 00:21:28;;;;;;;;;85.50;62.50;;;;;-3.41;81.19;100332.31;3725252;37;20477;-69
2021/01/15 00:23:56;;;;;;;;;87.25;64.25;;;;;-3.45;80.95;100344.88;3725813;38;20446;-69
2021/01/15 00:26:28;;;;;;;;;80.50;59.75;;;;;-3.49;81.37;100346.03;3725030;37;20452;-68
2021/01/15 00:28:55;;;;;;;;;75.50;60.25;;;;;-3.52;81.22;100348.00;3725373;37;20450;-70
2021/01/15 00:31:34;;;;;;;;;80.00;62.25;;;;;-3.53;81.45;100352.47;3725275;37;20453;-69
2021/01/15 00:34:04;;;;;;;;;79.25;63.50;;;;;-3.47;81.47;100351.22;3725474;38;20447;-67
2021/01/15 00:36:31;;;;;;;;;79.75;60.25;;;;;-3.44;81.41;100348.38;3725267;38;20441;-67
2021/01/15 00:38:57;;;;;;;;;81.50;60.50;;;;;-3.38;81.69;100347.97;3724984;37;20447;-67
2021/01/15 00:41:24;;;;;;;;;79.00;54.25;;;;;-3.42;81.67;100347.31;3725512;37;20424;-69
2021/01/15 00:43:51;;;;;;;;;75.75;56.50;;;;;-3.48;81.22;100350.38;3725465;37;20440;-68
2021/01/15 00:46:33;;;;;;;;;80.25;60.75;;;;;-3.62;81.19;100338.97;3725549;37;21418;-70
2021/01/15 00:49:13;;;;;;;;;76.50;57.50;;;;;-3.67;81.60;100345.44;3725205;37;21407;-67
2021/01/15 00:51:51;;;;;;;;;75.00;58.50;;;;;-3.50;81.73;100359.34;3725231;37;21416;-69
2021/01/15 00:54:20;;;;;;;;;80.75;62.75;;;;;-3.50;81.71;100335.53;3725146;37;20421;-68
2021/01/15 00:56:51;;;;;;;;;66.00;45.50;;;;;-3.50;81.70;100348.75;3725286;37;21402;-69
2021/01/15 00:59:23;;;;;;;;;82.25;59.75;;;;;-3.37;81.78;100361.09;3724691;38;21410;-70
2021/01/15 01:01:51;;;;;;;;;79.00;62.75;;;;;-3.42;81.24;100357.06;3725176;38;21400;-69
2021/01/15 01:04:18;;;;;;;;;85.75;64.00;;;;;-3.51;81.56;100369.06;3724871;37;21435;-68
2021/01/15 01:06:47;;;;;;;;;94.25;68.00;;;;;-3.73;81.58;100345.81;3725279;37;18616;-68
2021/01/15 01:09:14;;;;;;;;;89.00;62.75;;;;;-3.63;81.54;100366.37;3725314;37;18594;-68
2021/01/15 01:11:41;;;;;;;;;77.75;62.25;;;;;-3.64;81.73;100365.56;3725749;37;18584;-69
2021/01/15 01:14:10;;;;;;;;;86.75;61.75;;;;;-3.56;82.06;100367.69;3725664;38;21403;-68
2021/01/15 01:16:40;;;;;;;;;79.75;60.75;;;;;-3.52;82.16;100366.53;3725705;37;21382;-69
2021/01/15 01:19:08;;;;;;;;;76.50;55.00;;;;;-3.40;82.21;100374.53;3725431;38;21359;-66
2021/01/15 01:21:37;;;;;;;;;81.50;60.50;;;;;-3.32;81.94;100381.97;3725730;37;21367;-67
2021/01/15 01:24:04;;;;;;;;;88.00;62.25;;;;;-3.27;82.12;100376.37;3725314;37;21355;-67
2021/01/15 01:26:31;;;;;;;;;71.50;54.50;;;;;-3.34;82.50;100346.81;3725930;38;21400;-69
2021/01/15 01:29:00;;;;;;;;;70.50;54.00;;;;;-3.04;82.55;100378.34;3725782;37;21368;-67
2021/01/15 01:31:32;;;;;;;;;76.00;53.00;;;;;-2.87;82.58;100386.00;3725567;37;21348;-68
2021/01/15 01:33:58;;;;;;;;;50.00;42.50;;;;;-2.64;83.12;100383.63;3725226;37;21372;-68
2021/01/15 01:36:26;;;;;;;;;58.00;45.75;;;;;-2.42;83.18;100391.78;3725503;37;21483;-66
2021/01/15 01:38:52;;;;;;;;;43.25;35.25;;;;;-2.33;83.06;100381.41;3725290;37;21370;-67
2021/01/15 01:41:19;;;;;;;;;57.75;46.25;;;;;-2.14;82.92;100385.44;3725661;37;21340;-68
2021/01/15 01:43:45;;;;;;;;;62.25;47.50;;;;;-2.24;82.48;100352.56;3725220;38;21342;-66
2021/01/15 01:46:12;;;;;;;;;53.50;38.50;;;;;-1.97;82.49;100395.69;3725183;38;21347;-66
2021/01/15 01:48:40;;;;;;;;;40.75;32.25;;;;;-1.99;82.30;100381.69;3725525;37;21327;-67
2021/01/15 01:51:08;;;;;;;;;26.00;19.75;;;;;-1.92;82.20;100382.09;3725050;38;21322;-68
2021/01/15 01:53:39;;;;;;;;;33.00;30.75;;;;;-1.98;81.77;100369.28;3725492;37;21317;-68
2021/01/15 01:56:07;;;;;;;;;33.00;26.75;;;;;-1.74;81.40;100402.87;3726105;37;21341;-67
2021/01/15 01:58:35;;;;;;;;;35.00;25.50;;;;;-1.66;81.57;100407.63;3725473;37;21330;-68
2021/01/15 02:01:03;;;;;;;;;31.25;25.00;;;;;-1.62;81.01;100400.31;3726115;37;21222;-69
2021/01/15 02:03:31;;;;;;;;;18.75;18.00;;;;;-1.74;80.81;100371.03;3725726;38;21247;-67
2021/01/15 02:05:57;;;;;;;;;17.50;14.25;;;;;-1.63;80.46;100383.53;3725571;37;21218;-66
2021/01/15 02:08:28;;;;;;;;;16.75;13.75;;;;;-1.46;80.47;100401.72;3725585;37;21226;-67
2021/01/15 02:11:26;;;;;;;;;26.75;20.25;;;;;-1.50;80.56;100389.63;3725263;37;21229;-67
2021/01/15 02:14:39;;;;;;;;;16.00;12.00;;;;;-1.76;80.08;100351.72;3725719;37;21289;-68
2021/01/15 02:17:16;;;;;;;;;22.50;13.50;;;;;-1.39;79.27;100420.72;3725692;37;21093;-67
2021/01/15 02:20:36;;;;;;;;;16.25;15.75;;;;;-1.35;79.64;100420.37;3725307;38;21215;-69
2021/01/15 02:23:15;;;;;;;;;15.50;13.25;;;;;-1.32;79.08;100427.28;3725626;37;21160;-67
2021/01/15 02:26:26;;;;;;;;;15.50;10.00;;;;;-1.27;78.99;100430.44;3725444;37;21213;-67
2021/01/15 02:29:19;;;;;;;;;17.75;15.50;;;;;-1.28;78.70;100431.41;3725644;38;21172;-67
2021/01/15 02:32:30;;;;;;;;;20.00;17.25;;;;;-1.22;78.70;100438.94;3725184;38;21209;-67
2021/01/15 02:35:39;;;;;;;;;21.00;18.25;;;;;-1.18;78.57;100444.84;3725605;38;21413;-66
2021/01/15 02:38:32;;;;;;;;;14.25;12.50;;;;;-1.23;78.30;100439.88;3725596;37;21220;-67
2021/01/15 02:41:31;;;;;;;;;13.00;8.50;;;;;-1.31;78.42;100436.94;3725715;38;21144;-69
2021/01/15 02:44:03;;;;;;;;;18.50;14.00;;;;;-1.28;78.38;100470.38;3724559;38;21086;-69
2021/01/15 02:47:00;;;;;;;;;23.50;18.00;;;;;-1.35;78.69;100475.28;3724340;37;21156;-69
2021/01/15 02:49:29;;;;;;;;;14.75;10.50;;;;;-1.46;80.28;100480.50;3724688;38;21015;-69
2021/01/15 02:51:58;;;;;;;;;26.25;18.25;;;;;-1.55;81.53;100486.44;3725186;37;21076;-68
2021/01/15 02:54:28;;;;;;;;;16.75;12.75;;;;;-1.61;81.52;100479.81;3725347;37;21177;-69
2021/01/15 02:56:55;;;;;;;;;14.25;12.00;;;;;-1.63;81.33;100489.69;3725351;37;21155;-68
2021/01/15 02:59:23;;;;;;;;;12.00;11.25;;;;;-1.94;80.62;100487.44;3725341;37;21120;-69
2021/01/15 03:02:22;;;;;;;;;15.50;13.75;;;;;-1.93;80.40;100487.34;3725706;38;21100;-68
2021/01/15 03:05:21;;;;;;;;;19.00;11.25;;;;;-3.61;80.33;100230.44;3725498;38;21061;-69
2021/01/15 03:07:53;;;;;;;;;13.25;12.50;;;;;-2.01;80.44;100502.94;3725918;38;21079;-68
2021/01/15 03:10:25;;;;;;;;;16.00;14.50;;;;;-2.09;80.61;100494.69;3725654;38;21145;-67
2021/01/15 03:12:57;;;;;;;;;17.75;14.50;;;;;-2.10;80.50;100503.59;3725467;38;21091;-68
2021/01/15 03:15:25;;;;;;;;;16.25;14.25;;;;;-2.16;80.86;100493.38;3725373;38;21140;-67
2021/01/15 03:17:52;;;;;;;;;11.50;9.50;;;;;-2.25;80.77;100501.97;3725384;38;21127;-67
2021/01/15 03:20:22;;;;;;;;;15.25;11.00;;;;;-2.25;81.23;100500.16;3725734;37;21013;-67
2021/01/15 03:22:51;;;;;;;;;14.25;9.25;;;;;-2.27;81.25;100503.88;3725422;37;21070;-67
2021/01/15 03:25:22;;;;;;;;;11.25;7.75;;;;;-2.25;81.40;100488.72;3725276;38;21041;-67
2021/01/15 03:27:54;;;;;;;;;15.00;14.00;;;;;-2.41;81.09;100489.72;3725569;37;21048;-69
2021/01/15 03:30:26;;;;;;;;;17.50;13.50;;;;;-2.29;81.17;100498.66;3725372;38;21055;-67
2021/01/15 03:32:57;;;;;;;;;8.50;7.00;;;;;-2.31;81.25;100502.38;3725880;37;21049;-69
2021/01/15 03:35:34;;;;;;;;;7.75;6.25;;;;;-2.31;80.70;100505.03;3725215;38;20985;-68
2021/01/15 03:38:05;;;;;;;;;10.25;4.50;;;;;-2.38;80.83;100491.34;3725377;37;20979;-67
2021/01/15 03:40:36;;;;;;;;;10.75;7.50;;;;;-2.30;80.37;100504.06;3725669;38;21000;-67
2021/01/15 03:43:19;;;;;;;;;13.75;10.00;;;;;-2.48;79.62;100498.19;3725212;37;21003;-66
2021/01/15 03:45:48;;;;;;;;;7.75;5.00;;;;;-2.36;79.66;100516.78;3725247;37;21031;-67
2021/01/15 03:48:17;;;;;;;;;14.50;8.75;;;;;-2.48;78.33;100507.00;3725440;37;20994;-67
2021/01/15 03:50:44;;;;;;;;;10.50;8.25;;;;;-2.40;77.60;100520.59;3725323;37;21044;-67
2021/01/15 03:53:19;;;;;;;;;11.00;8.00;;;;;-2.37;76.84;100535.44;3725292;38;21015;-67
2021/01/15 03:55:47;;;;;;;;;11.00;8.00;;;;;-2.49;76.27;100497.34;3725258;37;20971;-68
2021/01/15 03:58:14;;;;;;;;;9.00;9.00;;;;;-2.40;75.07;100525.88;3725524;38;21015;-66
2021/01/15 04:00:40;;;;;;;;;12.00;11.00;;;;;-2.30;74.20;100542.03;3725354;38;20935;-66
2021/01/15 04:03:07;;;;;;;;;14.75;11.00;;;;;-2.28;74.11;100534.81;3725907;38;21033;-66
2021/01/15 04:05:35;;;;;;;;;11.50;10.25;;;;;-2.25;73.92;100550.53;3725202;38;21025;-67
2021/01/15 04:08:03;;;;;;;;;9.25;7.50;;;;;-2.21;73.82;100553.81;3725238;38;21009;-67
2021/01/15 04:10:32;;;;;;;;;9.75;7.00;;;;;-2.39;73.72;100538.19;3725244;38;20928;-70
2021/01/15 04:13:00;;;;;;;;;9.75;8.25;;;;;-2.31;74.01;100542.13;3725681;37;20929;-68
2021/01/15 04:15:27;;;;;;;;;7.25;7.00;;;;;-2.34;73.92;100551.12;3725197;37;21001;-69
2021/01/15 04:17:54;;;;;;;;;14.50;10.50;;;;;-2.42;73.84;100533.09;3725694;38;20938;-66
2021/01/15 04:20:20;;;;;;;;;8.00;8.00;;;;;-2.33;73.71;100547.53;3725526;37;21198;-67
2021/01/15 04:22:48;;;;;;;;;10.25;10.25;;;;;-2.35;73.46;100544.97;3725680;38;20928;-66
2021/01/15 04:25:15;;;;;;;;;11.75;11.25;;;;;-2.33;73.46;100551.03;3725257;38;20959;-67
2021/01/15 04:27:46;;;;;;;;;10.00;7.50;;;;;-2.31;73.09;100556.22;3726238;37;20971;-68
2021/01/15 04:30:16;;;;;;;;;5.50;5.50;;;;;-2.53;72.29;100527.66;3725360;37;20940;-68
2021/01/15 04:32:48;;;;;;;;;6.25;4.00;;;;;-2.39;72.03;100550.59;3725940;37;20912;-68
2021/01/15 04:35:19;;;;;;;;;8.50;8.00;;;;;-2.52;71.81;100545.25;3725867;37;20918;-69
2021/01/15 04:37:47;;;;;;;;;8.50;5.00;;;;;-2.51;71.91;100539.00;3724947;37;20904;-68
2021/01/15 04:40:14;;;;;;;;;17.25;13.25;;;;;-2.46;72.00;100559.88;3725544;37;20899;-68
2021/01/15 04:42:45;;;;;;;;;22.00;18.25;;;;;-2.56;71.91;100561.44;3725797;38;20975;-69
2021/01/15 04:45:14;;;;;;;;;6.50;5.00;;;;;-2.64;72.64;100554.03;3725451;37;21055;-69
2021/01/15 04:47:49;;;;;;;;;8.75;7.00;;;;;-2.71;73.90;100553.56;3725381;37;20881;-68
2021/01/15 04:50:17;;;;;;;;;7.75;6.50;;;;;-2.67;74.84;100556.88;3725932;38;20872;-66
2021/01/15 04:52:53;;;;;;;;;18.50;11.25;;;;;-2.53;74.92;100577.13;3725147;38;20874;-67
2021/01/15 04:55:26;;;;;;;;;14.00;13.50;;;;;-2.55;75.01;100590.47;3725090;38;20949;-67
2021/01/15 04:57:56;;;;;;;;;8.50;7.00;;;;;-2.84;75.30;100555.31;3725228;37;20938;-68
2021/01/15 05:00:25;;;;;;;;;9.75;7.00;;;;;-2.65;75.88;100597.34;3725769;37;20872;-67
2021/01/15 05:02:53;;;;;;;;;11.50;8.50;;;;;-2.62;76.52;100599.81;3725149;38;20918;-68
2021/01/15 05:05:28;;;;;;;;;7.50;5.00;;;;;-2.89;76.44;100549.44;3725241;37;20905;-71
2021/01/15 05:08:32;;;;;;;;;8.75;7.75;;;;;-2.68;76.24;100621.38;3725707;37;20846;-68
2021/01/15 05:11:03;;;;;;;;;7.25;7.25;;;;;-2.91;76.45;100583.13;3725712;37;20866;-67
2021/01/15 05:13:43;;;;;;;;;10.25;9.25;;;;;-2.90;76.38;100600.72;3725429;37;20859;-67
2021/01/15 05:16:10;;;;;;;;;8.75;8.00;;;;;-2.96;76.54;100613.47;3725424;37;20907;-69
2021/01/15 05:18:46;;;;;;;;;11.25;10.75;;;;;-2.90;76.62;100642.22;3725904;37;20854;-69
2021/01/15 05:21:13;;;;;;;;;6.50;5.25;;;;;-2.97;76.96;100638.25;3726591;37;20926;-69
2021/01/15 05:23:45;;;;;;;;;18.50;12.75;;;;;-3.00;77.12;100639.28;3725304;37;20835;-69
2021/01/15 05:26:15;;;;;;;;;11.50;11.00;;;;;-3.15;77.22;100619.09;3725582;38;20885;-68
2021/01/15 05:28:45;;;;;;;;;12.75;9.00;;;;;-3.06;77.37;100634.38;3725622;38;20865;-66
2021/01/15 05:31:12;;;;;;;;;8.25;7.50;;;;;-2.98;77.49;100649.78;3725673;37;20865;-67
2021/01/15 05:33:40;;;;;;;;;7.00;5.00;;;;;-3.11;77.45;100662.94;3725115;38;20818;-67
2021/01/15 05:36:07;;;;;;;;;6.50;5.00;;;;;-3.14;78.34;100655.22;3725202;37;20821;-67
2021/01/15 05:38:33;;;;;;;;;13.25;8.25;;;;;-3.18;79.43;100664.28;3725901;38;20825;-68
2021/01/15 05:40:59;;;;;;;;;11.75;8.50;;;;;-3.19;79.15;100671.37;3725734;38;20871;-68
2021/01/15 05:43:34;;;;;;;;;3.00;3.00;;;;;-3.23;79.02;100663.72;3725851;37;20865;-68
2021/01/15 05:46:14;;;;;;;;;7.00;5.50;;;;;-3.21;79.15;100667.09;3725402;38;20782;-66
2021/01/15 05:48:50;;;;;;;;;11.00;8.00;;;;;-3.20;79.23;100661.72;3725523;37;20819;-68
2021/01/15 05:51:31;;;;;;;;;5.50;5.00;;;;;-3.28;78.59;100673.72;3725364;38;20839;-66
2021/01/15 05:54:02;;;;;;;;;11.75;7.25;;;;;-3.22;78.94;100676.00;3725394;38;20786;-66
2021/01/15 05:56:58;;;;;;;;;8.00;7.50;;;;;-3.28;78.85;100684.31;3725340;37;20836;-70
2021/01/15 05:59:26;;;;;;;;;10.75;9.50;;;;;-3.17;79.02;100677.41;3725766;37;20783;-67
2021/01/15 06:02:05;;;;;;;;;10.00;8.00;;;;;-3.04;79.20;100683.63;3725843;37;20863;-67
2021/01/15 06:04:41;;;;;;;;;17.25;11.00;;;;;-2.97;79.00;100686.75;3725748;38;20834;-69
2021/01/15 06:07:18;;;;;;;;;16.50;14.50;;;;;-3.19;78.25;100663.44;3725471;37;20933;-68
2021/01/15 06:09:48;;;;;;;;;11.75;11.00;;;;;-3.01;77.84;100698.50;3726088;38;20964;-67
2021/01/15 06:12:19;;;;;;;;;17.00;14.50;;;;;-3.08;77.00;100703.31;3725283;37;20895;-69
2021/01/15 06:14:49;;;;;;;;;13.25;11.00;;;;;-3.11;76.69;100713.22;3725936;37;20828;-69
2021/01/15 06:17:21;;;;;;;;;3.00;1.00;;;;;-3.15;75.95;100714.38;3725704;37;20833;-67
2021/01/15 06:19:54;;;;;;;;;14.00;12.75;;;;;-3.18;75.94;100702.19;3725326;37;20771;-67
2021/01/15 06:22:43;;;;;;;;;15.25;12.75;;;;;-3.17;75.64;100714.47;3725285;37;20835;-68
2021/01/15 06:25:56;;;;;;;;;9.00;7.00;;;;;-3.20;75.50;100724.41;3725370;37;20816;-70
2021/01/15 06:28:33;;;;;;;;;16.25;10.50;;;;;-3.33;74.56;100722.47;3725831;38;20675;-70
2021/01/15 06:31:03;;;;;;;;;14.00;9.75;;;;;-3.28;74.44;100737.22;3725697;37;20870;-68
2021/01/15 06:33:31;;;;;;;;;10.00;10.00;;;;;-3.21;74.46;100755.31;3726069;37;20791;-68
2021/01/15 06:35:59;;;;;;;;;15.00;12.00;;;;;-3.31;74.37;100740.91;3725324;38;20833;-68
2021/01/15 06:38:30;;;;;;;;;8.00;5.00;;;;;-3.28;74.23;100735.44;3725392;37;20790;-70
2021/01/15 06:40:58;;;;;;;;;13.50;10.75;;;;;-3.53;74.13;100725.44;3724873;38;20711;-69
2021/01/15 06:43:35;;;;;;;;;10.25;9.50;;;;;-3.33;74.49;100761.31;3725227;38;20825;-70
2021/01/15 06:46:07;;;;;;;;;18.25;13.75;;;;;-3.35;74.33;100756.13;3725284;38;20773;-69
2021/01/15 06:48:40;;;;;;;;;11.75;11.00;;;;;-3.25;74.93;100753.78;3725623;37;20804;-69
2021/01/15 06:51:09;;;;;;;;;12.50;11.50;;;;;-3.26;74.24;100767.97;3725300;38;20808;-69
2021/01/15 06:53:41;;;;;;;;;15.75;13.50;;;;;-3.27;74.83;100757.47;3725535;37;20792;-71
2021/01/15 06:56:09;;;;;;;;;9.50;6.00;;;;;-3.28;76.13;100769.84;3725522;37;20782;-68
2021/01/15 06:58:44;;;;;;;;;13.50;12.25;;;;;-3.31;76.47;100764.72;3725699;38;20875;-65
2021/01/15 07:01:23;;;;;;;;;14.50;11.50;;;;;-3.23;77.57;100762.47;3726242;37;20811;-69
2021/01/15 07:04:29;;;;;;;;;12.50;10.50;;;;;-3.27;75.97;100782.13;3725585;37;20844;-70
2021/01/15 07:07:15;;;;;;;;;16.00;12.75;;;;;-3.22;75.60;100785.38;3726632;38;20731;-65
2021/01/15 07:09:48;;;;;;;;;10.00;8.00;;;;;-3.55;74.90;100742.34;3725936;38;20764;-68
2021/01/15 07:12:44;;;;;;;;;24.00;20.00;;;;;-3.33;74.73;100779.84;3725311;38;20840;-65
2021/01/15 07:15:15;;;;;;;;;22.00;18.75;;;;;-3.27;75.18;100784.78;3725330;37;20862;-64
2021/01/15 07:17:48;;;;;;;;;21.50;15.25;;;;;-3.25;75.49;100785.53;3725339;38;20805;-66
2021/01/15 07:20:20;;;;;;;;;18.75;17.75;;;;;-3.18;75.27;100796.63;3725306;37;20783;-67
2021/01/15 07:22:59;;;;;;;;;20.25;16.50;;;;;-3.26;75.65;100790.94;3724977;38;20775;-66
2021/01/15 07:25:28;;;;;;;;;17.00;13.75;;;;;-3.26;75.78;100789.13;3725940;38;20892;-64
2021/01/15 07:27:55;;;;;;;;;23.00;16.00;;;;;-3.11;75.87;100785.56;3725628;37;20781;-64
2021/01/15 07:30:27;;;;;;;;;22.25;18.75;;;;;-3.00;75.92;100792.84;3725588;38;20782;-66
2021/01/15 07:32:56;;;;;;;;;19.75;15.75;;;;;-3.02;75.68;100792.09;3725179;37;20868;-65
2021/01/15 07:35:25;;;;;;;;;12.25;10.00;;;;;-3.11;75.26;100806.72;3725173;38;20774;-65
2021/01/15 07:38:24;;;;;;;;;15.25;11.50;;;;;-3.19;75.37;100790.47;3724987;37;20713;-63
2021/01/15 07:40:51;;;;;;;;;14.25;12.25;;;;;-3.26;74.88;100783.84;3725685;37;20726;-65
2021/01/15 07:43:34;;;;;;;;;11.75;10.50;;;;;-3.04;75.42;100799.28;3725794;38;20747;-67
2021/01/15 07:46:04;;;;;;;;;15.00;14.00;;;;;-3.07;74.55;100810.06;3725371;38;20728;-66
2021/01/15 07:48:33;;;;;;;;;16.75;10.75;;;;;-3.22;74.76;100774.78;3725629;37;20748;-66
2021/01/15 07:51:00;;;;;;;;;20.75;15.00;;;;;-3.11;75.14;100780.25;3725555;37;20671;-64
2021/01/15 07:53:54;;;;;;;;;17.25;13.75;;;;;-2.93;74.74;100794.19;3725889;37;20765;-65
2021/01/15 07:56:30;;;;;;;;;12.25;9.50;;;;;-2.84;75.31;100816.63;3725666;38;20791;-67
2021/01/15 07:58:59;;;;;;;;;12.50;8.50;;;;;-2.93;74.96;100827.78;3725197;37;20654;-67
2021/01/15 08:01:26;;;;;;;;;18.50;17.00;;;;;-2.87;75.06;100824.75;3725205;38;20712;-64
2021/01/15 08:03:57;;;;;;;;;15.50;12.50;;;;;-2.93;75.09;100806.59;3725023;38;20696;-68
2021/01/15 08:06:25;;;;;;;;;7.25;5.00;;;;;-2.85;74.24;100805.19;3725107;38;20678;-66
2021/01/15 08:09:01;;;;;;;;;11.75;10.00;;;;;-2.65;74.03;100817.22;3725496;37;20628;-67
2021/01/15 08:11:29;;;;;;;;;13.75;10.00;;;;;-2.70;73.79;100812.22;3725625;37;20749;-67
2021/01/15 08:14:20;;;;;;;;;19.00;15.25;;;;;-2.68;73.50;100833.31;3725805;37;20706;-68
2021/01/15 08:16:48;;;;;;;;;16.00;14.25;;;;;-2.83;74.10;100826.28;3725875;37;20714;-66
2021/01/15 08:19:18;;;;;;;;;19.00;16.00;;;;;-2.89;73.73;100834.59;3725920;37;20690;-69
2021/01/15 08:21:46;;;;;;;;;18.50;18.00;;;;;-2.70;74.10;100830.75;3725683;37;20800;-67
2021/01/15 08:24:17;;;;;;;;;11.75;9.50;;;;;-2.67;74.20;100830.56;3725598;37;20707;-67
2021/01/15 08:26:57;;;;;;;;;9.25;8.25;;;;;-2.60;72.52;100835.50;3725365;37;20668;-66
2021/01/15 08:29:24;;;;;;;;;16.50;9.00;;;;;-2.56;72.51;100844.94;3724814;38;20666;-66
2021/01/15 08:31:56;;;;;;;;;14.25;11.75;;;;;-2.64;72.34;100845.44;3724729;37;20648;-67
2021/01/15 08:34:30;;;;;;;;;16.75;12.25;;;;;-2.48;72.36;100855.94;3724750;37;20655;-71
2021/01/15 08:36:58;;;;;;;;;25.50;20.75;;;;;-2.29;72.40;100853.00;3725079;38;20710;-67
2021/01/15 08:39:25;;;;;;;;;18.75;14.75;;;;;-2.41;72.36;100826.31;3725803;38;20801;-65
2021/01/15 08:41:58;;;;;;;;;17.50;14.00;;;;;-2.10;72.59;100864.19;3725852;37;20683;-65
2021/01/15 08:44:34;;;;;;;;;12.50;9.00;;;;;-2.17;72.28;100853.09;3725799;38;20706;-64
2021/01/15 08:47:05;;;;;;;;;8.00;7.00;;;;;-2.20;72.64;100879.81;3725053;38;20582;-65
2021/01/15 08:49:31;;;;;;;;;14.75;13.00;;;;;-2.36;74.39;100860.50;3725293;37;20549;-63
2021/01/15 08:52:01;;;;;;;;;22.00;15.25;;;;;-2.27;74.65;100861.72;3724786;37;20610;-65
2021/01/15 08:54:39;;;;;;;;;16.50;14.25;;;;;-2.30;74.78;100870.72;3725230;38;20682;-63
2021/01/15 08:57:05;;;;;;;;;21.75;12.75;;;;;-2.76;75.06;100831.13;3724718;37;20605;-63
2021/01/15 08:59:33;;;;;;;;;12.75;11.25;;;;;-2.52;75.55;100865.84;3725456;38;20679;-65
2021/01/15 09:02:03;;;;;;;;;15.75;13.25;;;;;-2.37;76.17;100867.59;3724985;37;20600;-63
2021/01/15 09:04:32;;;;;;;;;13.75;11.50;;;;;-2.29;75.77;100860.97;3725352;38;20649;-63
2021/01/15 09:07:07;;;;;;;;;5.25;5.25;;;;;-2.36;75.64;100839.28;3725670;38;20594;-65
2021/01/15 09:09:35;;;;;;;;;17.50;13.75;;;;;-2.22;75.23;100870.25;3725443;37;20548;-63
2021/01/15 09:12:06;;;;;;;;;13.25;10.75;;;;;-2.21;75.70;100866.66;3725704;37;20587;-64
2021/01/15 09:14:35;;;;;;;;;15.75;13.50;;;;;-2.16;75.92;100851.31;3725191;37;20689;-65
2021/01/15 09:17:12;;;;;;;;;13.25;11.25;;;;;-2.02;75.22;100864.53;3725064;37;20624;-64
2021/01/15 09:19:40;;;;;;;;;21.00;18.00;;;;;-2.13;74.69;100861.72;3725477;38;20584;-63
2021/01/15 09:22:08;;;;;;;;;13.75;9.00;;;;;-2.09;74.73;100866.75;3725529;38;20718;-64
2021/01/15 09:24:36;;;;;;;;;13.75;12.25;;;;;-2.17;74.61;100866.38;3725615;37;20517;-64
2021/01/15 09:27:05;;;;;;;;;16.75;14.25;;;;;-2.14;74.10;100870.63;3725294;38;20576;-65
2021/01/15 09:29:36;;;;;;;;;9.00;8.75;;;;;-2.06;74.06;100869.19;3725598;37;20630;-65
2021/01/15 09:32:04;;;;;;;;;22.25;16.00;;;;;-2.21;73.71;100837.50;3726675;38;20523;-65
2021/01/15 09:34:31;;;;;;;;;18.00;11.50;;;;;-1.95;73.51;100880.91;3725882;37;20585;-64
2021/01/15 09:36:58;;;;;;;;;17.00;15.75;;;;;-2.07;72.82;100878.06;3726639;37;20582;-63
2021/01/15 09:39:32;;;;;;;;;17.50;11.75;;;;;-2.41;72.64;100857.25;3726812;38;20640;-65
2021/01/15 09:41:59;;;;;;;;;16.00;14.25;;;;;-2.36;72.61;100858.69;3725633;38;20606;-65
2021/01/15 09:44:28;;;;;;;;;13.50;10.00;;;;;-2.38;72.93;100843.81;3725417;38;20717;-64
2021/01/15 09:47:00;;;;;;;;;19.50;15.00;;;;;-2.25;72.71;100860.69;3725466;37;20564;-64
2021/01/15 09:49:28;;;;;;;;;13.00;12.00;;;;;-2.18;72.38;100875.25;3725003;37;20596;-64
2021/01/15 09:51:54;;;;;;;;;11.00;11.00;;;;;-2.25;72.95;100873.09;3725250;37;20582;-65
2021/01/15 09:54:21;;;;;;;;;17.25;15.50;;;;;-2.31;72.63;100871.66;3725303;37;20550;-62
2021/01/15 09:56:53;;;;;;;;;20.50;15.00;;;;;-2.22;73.30;100872.91;3724890;38;20594;-64
2021/01/15 09:59:24;;;;;;;;;13.25;12.50;;;;;-2.15;72.87;100872.44;3725509;38;20583;-65
2021/01/15 10:01:51;;;;;;;;;17.75;15.50;;;;;-2.13;72.93;100867.03;3725576;38;20604;-64
2021/01/15 10:04:17;;;;;;;;;16.00;12.00;;;;;-2.25;72.46;100855.38;3725477;37;20606;-63
2021/01/15 10:06:47;;;;;;;;;20.25;15.50;;;;;-2.18;71.90;100871.75;3725483;37;20526;-63
2021/01/15 10:09:15;;;;;;;;;15.75;13.75;;;;;-2.39;71.71;100850.91;3725064;38;20574;-66
2021/01/15 10:11:48;;;;;;;;;18.50;15.00;;;;;-2.46;71.87;100839.00;3725892;37;20590;-64
2021/01/15 10:14:17;;;;;;;;;16.75;14.75;;;;;-2.11;71.80;100878.41;3725787;38;20591;-67
2021/01/15 10:16:49;;;;;;;;;22.25;18.00;;;;;-2.10;71.99;100857.09;3725699;37;20663;-65
2021/01/15 10:19:19;;;;;;;;;21.50;19.00;;;;;-1.88;71.59;100861.03;3725303;37;20655;-64
2021/01/15 10:21:45;;;;;;;;;26.00;20.75;;;;;-1.82;71.52;100860.63;3725269;38;20555;-63
2021/01/15 10:24:18;;;;;;;;;19.50;15.00;;;;;-1.96;71.68;100860.66;3725483;37;20666;-63
2021/01/15 10:26:45;;;;;;;;;23.00;19.75;;;;;-2.04;71.82;100827.50;3725123;38;20548;-64
2021/01/15 10:29:29;;;;;;;;;25.75;21.75;;;;;-2.05;71.99;100854.97;3725010;37;20551;-63
2021/01/15 10:31:55;;;;;;;;;24.25;20.75;;;;;-2.03;71.99;100854.88;3725795;38;20625;-65
2021/01/15 10:34:23;;;;;;;;;28.25;23.00;;;;;-1.92;72.58;100848.91;3725372;37;20662;-64
2021/01/15 10:36:51;;;;;;;;;33.75;25.50;;;;;-1.95;72.02;100862.34;3725474;38;20618;-64
2021/01/15 10:39:18;;;;;;;;;28.25;21.25;;;;;-2.03;72.37;100853.06;3725396;37;20621;-63
2021/01/15 10:41:51;;;;;;;;;28.75;26.00;;;;;-2.06;73.20;100855.06;3725222;37;20594;-65
2021/01/15 10:44:20;;;;;;;;;33.00;22.75;;;;;-2.06;73.41;100857.72;3725588;37;20610;-63
2021/01/15 10:46:50;;;;;;;;;29.00;24.75;;;;;-2.29;77.80;100831.81;3725624;37;20598;-65
2021/01/15 10:49:21;;;;;;;;;25.00;19.75;;;;;-2.11;77.62;100846.56;3725385;37;20591;-65
2021/01/15 10:51:52;;;;;;;;;33.00;29.75;;;;;-2.18;77.36;100851.41;3725756;38;20592;-63
2021/01/15 10:54:18;;;;;;;;;33.50;29.75;;;;;-1.95;78.06;100857.91;3725573;38;20618;-64
2021/01/15 10:56:46;;;;;;;;;32.00;28.25;;;;;-2.18;77.14;100830.19;3725882;37;20604;-65
2021/01/15 10:59:14;;;;;;;;;30.00;24.25;;;;;-1.89;77.56;100848.72;3725652;37;20599;-63
2021/01/15 11:01:51;;;;;;;;;29.50;21.25;;;;;-1.87;76.42;100845.00;3725441;38;20602;-63
2021/01/15 11:04:21;;;;;;;;;42.50;29.50;;;;;-2.04;74.83;100838.09;3725704;37;20592;-64
2021/01/15 11:06:53;;;;;;;;;34.00;31.50;;;;;-1.82;75.49;100858.84;3725225;37;20579;-64
2021/01/15 11:09:20;;;;;;;;;26.25;22.00;;;;;-1.95;74.15;100844.63;3725648;38;20597;-64
2021/01/15 11:11:47;;;;;;;;;29.00;26.75;;;;;-1.82;73.89;100860.63;3725184;37;20590;-64
2021/01/15 11:14:18;;;;;;;;;27.25;23.50;;;;;-2.08;73.74;100854.34;3725484;38;20597;-63
2021/01/15 11:16:45;;;;;;;;;28.50;23.75;;;;;-2.08;74.05;100855.16;3725373;38;20558;-65
2021/01/15 11:19:12;;;;;;;;;46.00;36.00;;;;;-2.04;74.37;100854.03;3725459;38;20582;-64
2021/01/15 11:21:39;;;;;;;;;27.00;23.75;;;;;-2.09;78.79;100849.97;3725711;37;20578;-63
2021/01/15 11:24:10;;;;;;;;;32.75;28.50;;;;;-2.02;78.43;100848.62;3725095;38;20561;-65
2021/01/15 11:26:36;;;;;;;;;24.25;22.75;;;;;-2.04;76.61;100850.50;3725122;37;20560;-63
2021/01/15 11:29:07;;;;;;;;;29.50;27.00;;;;;-2.28;76.34;100839.66;3725510;37;20563;-62
2021/01/15 11:31:33;;;;;;;;;33.25;26.00;;;;;-2.26;76.06;100847.53;3725528;38;20564;-63
2021/01/15 11:34:02;;;;;;;;;27.75;24.50;;;;;-2.32;76.73;100830.19;3725382;37;20558;-63
2021/01/15 11:36:31;;;;;;;;;25.50;19.50;;;;;-2.25;76.60;100851.88;3725636;37;20558;-65